sensor_id;sensor_type;location;lat;lon;timestamp;P1;durP1;ratioP1;P2;durP2;ratioP2
68858;SDS011;55864;49.238;8.092;2022-08-19T00:00:57;21.63;;;15.68;;
68858;SDS011;55864;49.238;8.092;2022-08-19T00:02:57;23.10;;;15.65;;
68858;SDS011;55864;49.238;8.092;2022-08-19T00:04:58;22.67;;;16.00;;
68858;SDS011;55864;49.238;8.092;2022-08-19T00:07:00;21.35;;;15.43;;
68858;SDS011;55864;49.238;8.092;2022-08-19T00:09:01;21.63;;;15.60;;
68858;SDS011;55864;49.238;8.092;2022-08-19T00:11:02;21.90;;;15.18;;
68858;SDS011;55864;49.238;8.092;2022-08-19T00:13:03;23.35;;;15.65;;
68858;SDS011;55864;49.238;8.092;2022-08-19T00:15:05;21.58;;;16.27;;
68858;SDS011;55864;49.238;8.092;2022-08-19T00:17:08;22.08;;;15.98;;
68858;SDS011;55864;49.238;8.092;2022-08-19T00:19:09;23.02;;;16.10;;
68858;SDS011;55864;49.238;8.092;2022-08-19T00:21:10;23.73;;;16.65;;
68858;SDS011;55864;49.238;8.092;2022-08-19T00:23:12;22.27;;;16.00;;
68858;SDS011;55864;49.238;8.092;2022-08-19T00:25:13;22.60;;;15.53;;
68858;SDS011;55864;49.238;8.092;2022-08-19T00:27:14;24.85;;;17.13;;
68858;SDS011;55864;49.238;8.092;2022-08-19T00:29:15;22.95;;;16.38;;
68858;SDS011;55864;49.238;8.092;2022-08-19T00:31:18;22.85;;;16.00;;
68858;SDS011;55864;49.238;8.092;2022-08-19T00:33:19;20.88;;;15.63;;
68858;SDS011;55864;49.238;8.092;2022-08-19T00:35:19;23.27;;;15.68;;
68858;SDS011;55864;49.238;8.092;2022-08-19T00:37:20;22.75;;;15.38;;
68858;SDS011;55864;49.238;8.092;2022-08-19T00:39:23;21.58;;;15.85;;
68858;SDS011;55864;49.238;8.092;2022-08-19T00:41:25;22.33;;;16.00;;
68858;SDS011;55864;49.238;8.092;2022-08-19T00:43:27;21.00;;;15.98;;
68858;SDS011;55864;49.238;8.092;2022-08-19T00:45:28;22.90;;;15.57;;
68858;SDS011;55864;49.238;8.092;2022-08-19T00:47:29;23.30;;;15.82;;
68858;SDS011;55864;49.238;8.092;2022-08-19T00:49:30;24.50;;;16.58;;
68858;SDS011;55864;49.238;8.092;2022-08-19T00:51:34;22.05;;;15.27;;
68858;SDS011;55864;49.238;8.092;2022-08-19T00:53:34;24.02;;;16.00;;
68858;SDS011;55864;49.238;8.092;2022-08-19T00:55:36;26.17;;;16.40;;
68858;SDS011;55864;49.238;8.092;2022-08-19T00:57:39;22.55;;;16.23;;
68858;SDS011;55864;49.238;8.092;2022-08-19T00:59:44;21.83;;;16.00;;
68858;SDS011;55864;49.238;8.092;2022-08-19T01:01:47;20.77;;;15.73;;
68858;SDS011;55864;49.238;8.092;2022-08-19T01:03:48;22.45;;;15.82;;
68858;SDS011;55864;49.238;8.092;2022-08-19T01:05:49;24.52;;;16.67;;
68858;SDS011;55864;49.238;8.092;2022-08-19T01:09:53;21.20;;;15.55;;
68858;SDS011;55864;49.238;8.092;2022-08-19T01:11:55;21.30;;;16.00;;
68858;SDS011;55864;49.238;8.092;2022-08-19T01:13:56;22.90;;;16.08;;
68858;SDS011;55864;49.238;8.092;2022-08-19T01:16:00;22.35;;;15.82;;
68858;SDS011;55864;49.238;8.092;2022-08-19T01:18:06;23.60;;;16.25;;
68858;SDS011;55864;49.238;8.092;2022-08-19T01:20:12;22.25;;;16.27;;
68858;SDS011;55864;49.238;8.092;2022-08-19T01:24:30;25.13;;;17.08;;
68858;SDS011;55864;49.238;8.092;2022-08-19T01:26:31;21.75;;;15.27;;
68858;SDS011;55864;49.238;8.092;2022-08-19T01:28:38;23.27;;;16.20;;
68858;SDS011;55864;49.238;8.092;2022-08-19T01:30:38;23.63;;;16.48;;
68858;SDS011;55864;49.238;8.092;2022-08-19T01:32:39;24.13;;;16.48;;
68858;SDS011;55864;49.238;8.092;2022-08-19T01:34:40;23.35;;;15.82;;
68858;SDS011;55864;49.238;8.092;2022-08-19T01:36:42;23.38;;;15.80;;
68858;SDS011;55864;49.238;8.092;2022-08-19T01:38:45;22.63;;;16.23;;
68858;SDS011;55864;49.238;8.092;2022-08-19T01:40:45;22.38;;;16.15;;
68858;SDS011;55864;49.238;8.092;2022-08-19T01:42:46;23.33;;;16.35;;
68858;SDS011;55864;49.238;8.092;2022-08-19T01:44:46;23.20;;;16.20;;
68858;SDS011;55864;49.238;8.092;2022-08-19T01:46:48;21.55;;;16.35;;
68858;SDS011;55864;49.238;8.092;2022-08-19T01:49:04;24.92;;;17.00;;
68858;SDS011;55864;49.238;8.092;2022-08-19T01:51:05;22.27;;;16.58;;
68858;SDS011;55864;49.238;8.092;2022-08-19T01:53:09;24.13;;;16.15;;
68858;SDS011;55864;49.238;8.092;2022-08-19T01:55:13;21.58;;;15.75;;
68858;SDS011;55864;49.238;8.092;2022-08-19T01:57:16;25.23;;;16.77;;
68858;SDS011;55864;49.238;8.092;2022-08-19T01:59:17;25.52;;;17.65;;
68858;SDS011;55864;49.238;8.092;2022-08-19T02:01:20;24.25;;;16.98;;
68858;SDS011;55864;49.238;8.092;2022-08-19T02:03:21;25.17;;;16.58;;
68858;SDS011;55864;49.238;8.092;2022-08-19T02:05:21;23.30;;;16.42;;
68858;SDS011;55864;49.238;8.092;2022-08-19T02:07:22;24.98;;;16.85;;
68858;SDS011;55864;49.238;8.092;2022-08-19T02:09:23;26.50;;;17.42;;
68858;SDS011;55864;49.238;8.092;2022-08-19T02:11:26;26.02;;;17.40;;
68858;SDS011;55864;49.238;8.092;2022-08-19T02:13:29;26.75;;;18.60;;
68858;SDS011;55864;49.238;8.092;2022-08-19T02:15:31;30.75;;;18.80;;
68858;SDS011;55864;49.238;8.092;2022-08-19T02:17:34;27.15;;;18.15;;
68858;SDS011;55864;49.238;8.092;2022-08-19T02:19:36;23.08;;;16.55;;
68858;SDS011;55864;49.238;8.092;2022-08-19T02:23:40;25.10;;;17.17;;
68858;SDS011;55864;49.238;8.092;2022-08-19T02:25:43;26.23;;;17.25;;
68858;SDS011;55864;49.238;8.092;2022-08-19T02:27:51;25.48;;;17.35;;
68858;SDS011;55864;49.238;8.092;2022-08-19T02:29:55;23.90;;;16.75;;
68858;SDS011;55864;49.238;8.092;2022-08-19T02:31:57;22.48;;;16.83;;
68858;SDS011;55864;49.238;8.092;2022-08-19T02:33:59;23.70;;;17.35;;
68858;SDS011;55864;49.238;8.092;2022-08-19T02:36:03;22.02;;;16.83;;
68858;SDS011;55864;49.238;8.092;2022-08-19T02:38:06;27.30;;;18.00;;
68858;SDS011;55864;49.238;8.092;2022-08-19T02:40:10;24.43;;;17.30;;
68858;SDS011;55864;49.238;8.092;2022-08-19T02:42:13;25.80;;;17.15;;
68858;SDS011;55864;49.238;8.092;2022-08-19T02:44:16;23.00;;;17.10;;
68858;SDS011;55864;49.238;8.092;2022-08-19T02:46:22;22.70;;;16.17;;
68858;SDS011;55864;49.238;8.092;2022-08-19T02:48:26;24.58;;;17.45;;
68858;SDS011;55864;49.238;8.092;2022-08-19T02:50:28;26.08;;;17.02;;
68858;SDS011;55864;49.238;8.092;2022-08-19T02:52:31;23.33;;;16.75;;
68858;SDS011;55864;49.238;8.092;2022-08-19T02:54:43;26.73;;;18.10;;
68858;SDS011;55864;49.238;8.092;2022-08-19T02:56:45;24.27;;;17.23;;
68858;SDS011;55864;49.238;8.092;2022-08-19T02:58:50;24.02;;;16.88;;
68858;SDS011;55864;49.238;8.092;2022-08-19T03:00:55;23.90;;;17.55;;
68858;SDS011;55864;49.238;8.092;2022-08-19T03:02:57;26.40;;;16.00;;
68858;SDS011;55864;49.238;8.092;2022-08-19T03:05:00;24.58;;;17.50;;
68858;SDS011;55864;49.238;8.092;2022-08-19T03:09:07;21.13;;;15.57;;
68858;SDS011;55864;49.238;8.092;2022-08-19T03:11:12;24.38;;;16.27;;
68858;SDS011;55864;49.238;8.092;2022-08-19T03:13:15;24.30;;;17.52;;
68858;SDS011;55864;49.238;8.092;2022-08-19T03:15:21;24.52;;;17.30;;
68858;SDS011;55864;49.238;8.092;2022-08-19T03:17:26;25.80;;;17.50;;
68858;SDS011;55864;49.238;8.092;2022-08-19T03:22:06;22.98;;;16.30;;
68858;SDS011;55864;49.238;8.092;2022-08-19T03:24:09;20.52;;;14.70;;
68858;SDS011;55864;49.238;8.092;2022-08-19T03:26:15;23.58;;;16.88;;
68858;SDS011;55864;49.238;8.092;2022-08-19T03:28:17;23.65;;;16.38;;
68858;SDS011;55864;49.238;8.092;2022-08-19T03:30:18;22.00;;;15.77;;
68858;SDS011;55864;49.238;8.092;2022-08-19T03:32:19;23.27;;;16.45;;
68858;SDS011;55864;49.238;8.092;2022-08-19T03:34:27;23.65;;;15.77;;
68858;SDS011;55864;49.238;8.092;2022-08-19T03:36:30;22.90;;;16.42;;
68858;SDS011;55864;49.238;8.092;2022-08-19T03:38:35;23.30;;;15.93;;
68858;SDS011;55864;49.238;8.092;2022-08-19T03:42:48;21.05;;;14.73;;
68858;SDS011;55864;49.238;8.092;2022-08-19T03:44:50;21.87;;;15.60;;
68858;SDS011;55864;49.238;8.092;2022-08-19T03:46:53;21.15;;;14.95;;
68858;SDS011;55864;49.238;8.092;2022-08-19T03:49:01;20.02;;;14.63;;
68858;SDS011;55864;49.238;8.092;2022-08-19T03:51:15;20.23;;;14.35;;
68858;SDS011;55864;49.238;8.092;2022-08-19T03:53:22;20.42;;;14.15;;
68858;SDS011;55864;49.238;8.092;2022-08-19T03:55:25;19.70;;;15.02;;
68858;SDS011;55864;49.238;8.092;2022-08-19T03:57:30;20.15;;;15.18;;
68858;SDS011;55864;49.238;8.092;2022-08-19T03:59:34;21.85;;;15.05;;
68858;SDS011;55864;49.238;8.092;2022-08-19T04:01:40;20.77;;;15.23;;
68858;SDS011;55864;49.238;8.092;2022-08-19T04:03:43;19.60;;;14.75;;
68858;SDS011;55864;49.238;8.092;2022-08-19T04:05:47;20.85;;;15.10;;
68858;SDS011;55864;49.238;8.092;2022-08-19T04:07:55;21.17;;;14.43;;
68858;SDS011;55864;49.238;8.092;2022-08-19T04:10:00;20.08;;;14.40;;
68858;SDS011;55864;49.238;8.092;2022-08-19T04:12:09;18.88;;;14.52;;
68858;SDS011;55864;49.238;8.092;2022-08-19T04:14:13;18.83;;;13.68;;
68858;SDS011;55864;49.238;8.092;2022-08-19T04:16:17;20.55;;;14.35;;
68858;SDS011;55864;49.238;8.092;2022-08-19T04:18:29;20.50;;;13.95;;
68858;SDS011;55864;49.238;8.092;2022-08-19T04:20:38;20.55;;;14.32;;
68858;SDS011;55864;49.238;8.092;2022-08-19T04:22:44;18.83;;;13.77;;
68858;SDS011;55864;49.238;8.092;2022-08-19T04:24:51;19.30;;;13.70;;
68858;SDS011;55864;49.238;8.092;2022-08-19T04:26:53;19.65;;;13.90;;
68858;SDS011;55864;49.238;8.092;2022-08-19T04:28:55;19.67;;;14.07;;
68858;SDS011;55864;49.238;8.092;2022-08-19T04:31:11;21.63;;;14.13;;
68858;SDS011;55864;49.238;8.092;2022-08-19T04:33:17;19.67;;;13.40;;
68858;SDS011;55864;49.238;8.092;2022-08-19T04:35:20;17.65;;;13.57;;
68858;SDS011;55864;49.238;8.092;2022-08-19T04:37:35;19.60;;;13.07;;
68858;SDS011;55864;49.238;8.092;2022-08-19T04:39:48;18.98;;;13.48;;
68858;SDS011;55864;49.238;8.092;2022-08-19T04:41:53;18.20;;;12.95;;
68858;SDS011;55864;49.238;8.092;2022-08-19T04:43:58;19.90;;;14.02;;
68858;SDS011;55864;49.238;8.092;2022-08-19T04:46:04;17.30;;;13.25;;
68858;SDS011;55864;49.238;8.092;2022-08-19T04:48:05;17.02;;;13.52;;
68858;SDS011;55864;49.238;8.092;2022-08-19T04:50:06;19.38;;;13.40;;
68858;SDS011;55864;49.238;8.092;2022-08-19T04:52:07;19.30;;;13.80;;
68858;SDS011;55864;49.238;8.092;2022-08-19T04:54:08;18.83;;;13.35;;
68858;SDS011;55864;49.238;8.092;2022-08-19T04:56:11;19.20;;;12.75;;
68858;SDS011;55864;49.238;8.092;2022-08-19T04:58:13;15.93;;;12.43;;
68858;SDS011;55864;49.238;8.092;2022-08-19T05:00:13;19.17;;;13.95;;
68858;SDS011;55864;49.238;8.092;2022-08-19T05:02:14;23.48;;;13.40;;
68858;SDS011;55864;49.238;8.092;2022-08-19T05:04:15;21.27;;;14.48;;
68858;SDS011;55864;49.238;8.092;2022-08-19T05:06:19;19.38;;;13.38;;
68858;SDS011;55864;49.238;8.092;2022-08-19T05:08:21;24.55;;;13.57;;
68858;SDS011;55864;49.238;8.092;2022-08-19T05:10:22;21.42;;;13.10;;
68858;SDS011;55864;49.238;8.092;2022-08-19T05:12:24;20.42;;;13.85;;
68858;SDS011;55864;49.238;8.092;2022-08-19T05:14:25;24.23;;;13.18;;
68858;SDS011;55864;49.238;8.092;2022-08-19T05:16:25;21.60;;;12.68;;
68858;SDS011;55864;49.238;8.092;2022-08-19T05:18:27;19.42;;;13.18;;
68858;SDS011;55864;49.238;8.092;2022-08-19T05:20:27;19.95;;;14.07;;
68858;SDS011;55864;49.238;8.092;2022-08-19T05:22:28;17.08;;;12.95;;
68858;SDS011;55864;49.238;8.092;2022-08-19T05:24:28;19.13;;;13.73;;
68858;SDS011;55864;49.238;8.092;2022-08-19T05:26:29;15.52;;;12.13;;
68858;SDS011;55864;49.238;8.092;2022-08-19T05:28:31;17.80;;;13.15;;
68858;SDS011;55864;49.238;8.092;2022-08-19T05:30:32;17.83;;;12.18;;
68858;SDS011;55864;49.238;8.092;2022-08-19T05:32:32;16.85;;;12.25;;
68858;SDS011;55864;49.238;8.092;2022-08-19T05:34:33;16.38;;;11.60;;
68858;SDS011;55864;49.238;8.092;2022-08-19T05:36:39;17.10;;;11.30;;
68858;SDS011;55864;49.238;8.092;2022-08-19T05:38:54;17.30;;;12.18;;
68858;SDS011;55864;49.238;8.092;2022-08-19T05:40:55;17.67;;;11.57;;
68858;SDS011;55864;49.238;8.092;2022-08-19T05:42:56;18.77;;;11.50;;
68858;SDS011;55864;49.238;8.092;2022-08-19T05:44:58;16.85;;;11.57;;
68858;SDS011;55864;49.238;8.092;2022-08-19T05:46:58;17.52;;;11.18;;
68858;SDS011;55864;49.238;8.092;2022-08-19T05:48:59;16.50;;;10.65;;
68858;SDS011;55864;49.238;8.092;2022-08-19T05:51:03;16.92;;;10.80;;
68858;SDS011;55864;49.238;8.092;2022-08-19T05:53:05;15.32;;;11.40;;
68858;SDS011;55864;49.238;8.092;2022-08-19T05:55:06;16.42;;;10.90;;
68858;SDS011;55864;49.238;8.092;2022-08-19T05:57:07;27.20;;;11.45;;
68858;SDS011;55864;49.238;8.092;2022-08-19T05:59:09;19.23;;;11.25;;
68858;SDS011;55864;49.238;8.092;2022-08-19T06:01:12;23.83;;;11.57;;
68858;SDS011;55864;49.238;8.092;2022-08-19T06:03:15;17.27;;;10.38;;
68858;SDS011;55864;49.238;8.092;2022-08-19T06:05:16;16.40;;;11.27;;
68858;SDS011;55864;49.238;8.092;2022-08-19T06:07:17;22.00;;;11.95;;
68858;SDS011;55864;49.238;8.092;2022-08-19T06:09:17;19.85;;;11.00;;
68858;SDS011;55864;49.238;8.092;2022-08-19T06:11:20;19.90;;;10.70;;
68858;SDS011;55864;49.238;8.092;2022-08-19T06:13:24;18.50;;;11.48;;
68858;SDS011;55864;49.238;8.092;2022-08-19T06:15:25;16.58;;;10.73;;
68858;SDS011;55864;49.238;8.092;2022-08-19T06:17:30;13.88;;;10.25;;
68858;SDS011;55864;49.238;8.092;2022-08-19T06:19:32;19.02;;;10.60;;
68858;SDS011;55864;49.238;8.092;2022-08-19T06:21:32;16.20;;;10.68;;
68858;SDS011;55864;49.238;8.092;2022-08-19T06:23:35;14.60;;;10.80;;
68858;SDS011;55864;49.238;8.092;2022-08-19T06:25:36;16.42;;;10.15;;
68858;SDS011;55864;49.238;8.092;2022-08-19T06:27:38;16.20;;;10.27;;
68858;SDS011;55864;49.238;8.092;2022-08-19T06:29:40;18.15;;;11.27;;
68858;SDS011;55864;49.238;8.092;2022-08-19T06:31:41;15.43;;;10.10;;
68858;SDS011;55864;49.238;8.092;2022-08-19T06:33:45;20.10;;;10.38;;
68858;SDS011;55864;49.238;8.092;2022-08-19T06:36:05;16.55;;;10.25;;
68858;SDS011;55864;49.238;8.092;2022-08-19T06:38:05;18.13;;;10.70;;
68858;SDS011;55864;49.238;8.092;2022-08-19T06:40:07;14.30;;;10.43;;
68858;SDS011;55864;49.238;8.092;2022-08-19T06:42:08;16.38;;;10.48;;
68858;SDS011;55864;49.238;8.092;2022-08-19T06:44:10;15.00;;;10.63;;
68858;SDS011;55864;49.238;8.092;2022-08-19T06:46:12;13.73;;;10.20;;
68858;SDS011;55864;49.238;8.092;2022-08-19T06:48:14;17.77;;;11.00;;
68858;SDS011;55864;49.238;8.092;2022-08-19T06:50:16;21.17;;;11.05;;
68858;SDS011;55864;49.238;8.092;2022-08-19T06:52:17;17.48;;;9.80;;
68858;SDS011;55864;49.238;8.092;2022-08-19T06:54:18;16.58;;;10.30;;
68858;SDS011;55864;49.238;8.092;2022-08-19T06:56:20;16.17;;;10.05;;
68858;SDS011;55864;49.238;8.092;2022-08-19T07:00:22;14.60;;;9.80;;
68858;SDS011;55864;49.238;8.092;2022-08-19T07:02:23;15.10;;;10.13;;
68858;SDS011;55864;49.238;8.092;2022-08-19T07:04:24;17.80;;;10.50;;
68858;SDS011;55864;49.238;8.092;2022-08-19T07:06:27;16.15;;;10.25;;
68858;SDS011;55864;49.238;8.092;2022-08-19T07:08:28;16.15;;;9.65;;
68858;SDS011;55864;49.238;8.092;2022-08-19T07:10:29;16.33;;;9.48;;
68858;SDS011;55864;49.238;8.092;2022-08-19T07:12:30;16.15;;;10.50;;
68858;SDS011;55864;49.238;8.092;2022-08-19T07:14:32;19.23;;;9.75;;
68858;SDS011;55864;49.238;8.092;2022-08-19T07:16:34;18.83;;;11.57;;
68858;SDS011;55864;49.238;8.092;2022-08-19T07:18:35;15.38;;;9.65;;
68858;SDS011;55864;49.238;8.092;2022-08-19T07:20:35;16.17;;;10.50;;
68858;SDS011;55864;49.238;8.092;2022-08-19T07:22:37;18.85;;;10.25;;
68858;SDS011;55864;49.238;8.092;2022-08-19T07:24:38;17.40;;;11.13;;
68858;SDS011;55864;49.238;8.092;2022-08-19T07:26:40;15.50;;;10.25;;
68858;SDS011;55864;49.238;8.092;2022-08-19T07:28:42;18.30;;;10.30;;
68858;SDS011;55864;49.238;8.092;2022-08-19T07:30:43;17.38;;;10.35;;
68858;SDS011;55864;49.238;8.092;2022-08-19T07:32:43;24.38;;;10.60;;
68858;SDS011;55864;49.238;8.092;2022-08-19T07:34:46;18.20;;;10.40;;
68858;SDS011;55864;49.238;8.092;2022-08-19T07:36:47;16.98;;;9.65;;
68858;SDS011;55864;49.238;8.092;2022-08-19T07:38:49;19.27;;;10.27;;
68858;SDS011;55864;49.238;8.092;2022-08-19T07:40:50;14.68;;;9.93;;
68858;SDS011;55864;49.238;8.092;2022-08-19T07:42:51;13.40;;;10.07;;
68858;SDS011;55864;49.238;8.092;2022-08-19T07:44:52;14.60;;;10.07;;
68858;SDS011;55864;49.238;8.092;2022-08-19T07:46:54;18.95;;;9.90;;
68858;SDS011;55864;49.238;8.092;2022-08-19T07:48:55;16.33;;;10.68;;
68858;SDS011;55864;49.238;8.092;2022-08-19T07:50:57;13.77;;;9.25;;
68858;SDS011;55864;49.238;8.092;2022-08-19T07:52:59;13.75;;;9.73;;
68858;SDS011;55864;49.238;8.092;2022-08-19T07:55:01;15.95;;;10.15;;
68858;SDS011;55864;49.238;8.092;2022-08-19T07:57:02;14.25;;;9.93;;
68858;SDS011;55864;49.238;8.092;2022-08-19T07:59:03;14.77;;;10.00;;
68858;SDS011;55864;49.238;8.092;2022-08-19T08:01:04;14.20;;;9.38;;
68858;SDS011;55864;49.238;8.092;2022-08-19T08:03:06;17.35;;;9.88;;
68858;SDS011;55864;49.238;8.092;2022-08-19T08:05:07;14.07;;;9.30;;
68858;SDS011;55864;49.238;8.092;2022-08-19T08:07:08;13.32;;;8.88;;
68858;SDS011;55864;49.238;8.092;2022-08-19T08:09:09;13.85;;;9.73;;
68858;SDS011;55864;49.238;8.092;2022-08-19T08:11:12;13.10;;;8.85;;
68858;SDS011;55864;49.238;8.092;2022-08-19T08:13:13;13.73;;;9.27;;
68858;SDS011;55864;49.238;8.092;2022-08-19T08:15:15;16.77;;;9.10;;
68858;SDS011;55864;49.238;8.092;2022-08-19T08:17:17;12.68;;;9.20;;
68858;SDS011;55864;49.238;8.092;2022-08-19T08:21:20;12.13;;;8.73;;
68858;SDS011;55864;49.238;8.092;2022-08-19T08:23:20;12.38;;;9.30;;
68858;SDS011;55864;49.238;8.092;2022-08-19T08:25:22;12.93;;;9.40;;
68858;SDS011;55864;49.238;8.092;2022-08-19T08:27:24;11.35;;;8.43;;
68858;SDS011;55864;49.238;8.092;2022-08-19T08:29:25;12.98;;;8.70;;
68858;SDS011;55864;49.238;8.092;2022-08-19T08:31:26;14.15;;;8.90;;
68858;SDS011;55864;49.238;8.092;2022-08-19T08:33:27;17.50;;;8.95;;
68858;SDS011;55864;49.238;8.092;2022-08-19T08:35:29;14.93;;;9.40;;
68858;SDS011;55864;49.238;8.092;2022-08-19T08:37:29;13.30;;;8.95;;
68858;SDS011;55864;49.238;8.092;2022-08-19T08:39:30;12.30;;;8.02;;
68858;SDS011;55864;49.238;8.092;2022-08-19T08:41:31;12.70;;;9.10;;
68858;SDS011;55864;49.238;8.092;2022-08-19T08:43:41;14.60;;;8.77;;
68858;SDS011;55864;49.238;8.092;2022-08-19T08:45:47;12.13;;;7.82;;
68858;SDS011;55864;49.238;8.092;2022-08-19T08:47:52;12.90;;;7.80;;
68858;SDS011;55864;49.238;8.092;2022-08-19T08:49:59;11.77;;;8.15;;
68858;SDS011;55864;49.238;8.092;2022-08-19T08:52:03;13.70;;;8.85;;
68858;SDS011;55864;49.238;8.092;2022-08-19T08:54:06;10.90;;;8.18;;
68858;SDS011;55864;49.238;8.092;2022-08-19T08:56:10;11.95;;;7.80;;
68858;SDS011;55864;49.238;8.092;2022-08-19T08:58:12;11.48;;;8.13;;
68858;SDS011;55864;49.238;8.092;2022-08-19T09:00:19;11.35;;;7.90;;
68858;SDS011;55864;49.238;8.092;2022-08-19T09:02:22;10.98;;;7.82;;
68858;SDS011;55864;49.238;8.092;2022-08-19T09:04:22;11.85;;;7.60;;
68858;SDS011;55864;49.238;8.092;2022-08-19T09:06:25;10.68;;;7.55;;
68858;SDS011;55864;49.238;8.092;2022-08-19T09:08:38;11.35;;;7.10;;
68858;SDS011;55864;49.238;8.092;2022-08-19T09:11:10;13.10;;;8.20;;
68858;SDS011;55864;49.238;8.092;2022-08-19T09:13:20;11.60;;;7.50;;
68858;SDS011;55864;49.238;8.092;2022-08-19T09:15:32;13.23;;;7.28;;
68858;SDS011;55864;49.238;8.092;2022-08-19T09:17:36;12.25;;;7.43;;
68858;SDS011;55864;49.238;8.092;2022-08-19T09:19:46;10.55;;;7.22;;
68858;SDS011;55864;49.238;8.092;2022-08-19T09:21:53;10.65;;;6.50;;
68858;SDS011;55864;49.238;8.092;2022-08-19T09:23:53;11.25;;;7.13;;
68858;SDS011;55864;49.238;8.092;2022-08-19T09:25:54;9.70;;;6.78;;
68858;SDS011;55864;49.238;8.092;2022-08-19T09:27:55;13.43;;;7.00;;
68858;SDS011;55864;49.238;8.092;2022-08-19T09:29:56;9.55;;;6.07;;
68858;SDS011;55864;49.238;8.092;2022-08-19T09:31:58;12.35;;;6.38;;
68858;SDS011;55864;49.238;8.092;2022-08-19T09:33:58;9.90;;;6.50;;
68858;SDS011;55864;49.238;8.092;2022-08-19T09:36:04;11.35;;;6.57;;
68858;SDS011;55864;49.238;8.092;2022-08-19T09:38:05;10.70;;;7.25;;
68858;SDS011;55864;49.238;8.092;2022-08-19T09:40:06;12.35;;;6.75;;
68858;SDS011;55864;49.238;8.092;2022-08-19T09:42:08;11.05;;;7.07;;
68858;SDS011;55864;49.238;8.092;2022-08-19T09:44:09;11.23;;;7.25;;
68858;SDS011;55864;49.238;8.092;2022-08-19T09:46:09;11.32;;;7.40;;
68858;SDS011;55864;49.238;8.092;2022-08-19T09:48:11;14.20;;;8.00;;
68858;SDS011;55864;49.238;8.092;2022-08-19T09:50:12;13.07;;;7.15;;
68858;SDS011;55864;49.238;8.092;2022-08-19T09:52:13;14.52;;;8.07;;
68858;SDS011;55864;49.238;8.092;2022-08-19T09:54:14;12.95;;;7.78;;
68858;SDS011;55864;49.238;8.092;2022-08-19T09:56:14;9.95;;;7.18;;
68858;SDS011;55864;49.238;8.092;2022-08-19T09:58:15;11.68;;;7.80;;
68858;SDS011;55864;49.238;8.092;2022-08-19T10:00:16;10.60;;;7.63;;
68858;SDS011;55864;49.238;8.092;2022-08-19T10:02:16;10.60;;;7.47;;
68858;SDS011;55864;49.238;8.092;2022-08-19T10:04:18;11.63;;;8.02;;
68858;SDS011;55864;49.238;8.092;2022-08-19T10:06:20;10.27;;;7.13;;
68858;SDS011;55864;49.238;8.092;2022-08-19T10:08:23;9.02;;;6.80;;
68858;SDS011;55864;49.238;8.092;2022-08-19T10:10:25;11.60;;;7.10;;
68858;SDS011;55864;49.238;8.092;2022-08-19T10:12:26;9.57;;;6.90;;
68858;SDS011;55864;49.238;8.092;2022-08-19T10:14:26;9.63;;;7.25;;
68858;SDS011;55864;49.238;8.092;2022-08-19T10:16:27;9.20;;;7.18;;
68858;SDS011;55864;49.238;8.092;2022-08-19T10:18:28;15.80;;;6.72;;
68858;SDS011;55864;49.238;8.092;2022-08-19T10:20:30;9.55;;;6.72;;
68858;SDS011;55864;49.238;8.092;2022-08-19T10:22:30;7.70;;;5.67;;
68858;SDS011;55864;49.238;8.092;2022-08-19T10:24:31;8.40;;;5.63;;
68858;SDS011;55864;49.238;8.092;2022-08-19T10:26:33;8.70;;;6.10;;
68858;SDS011;55864;49.238;8.092;2022-08-19T10:28:35;9.30;;;6.03;;
68858;SDS011;55864;49.238;8.092;2022-08-19T10:30:37;8.73;;;5.88;;
68858;SDS011;55864;49.238;8.092;2022-08-19T10:32:38;9.35;;;5.63;;
68858;SDS011;55864;49.238;8.092;2022-08-19T10:34:39;10.07;;;6.03;;
68858;SDS011;55864;49.238;8.092;2022-08-19T10:36:41;10.73;;;5.82;;
68858;SDS011;55864;49.238;8.092;2022-08-19T10:38:41;7.80;;;6.22;;
68858;SDS011;55864;49.238;8.092;2022-08-19T10:40:42;9.50;;;6.45;;
68858;SDS011;55864;49.238;8.092;2022-08-19T10:42:42;8.32;;;5.72;;
68858;SDS011;55864;49.238;8.092;2022-08-19T10:44:43;9.40;;;6.07;;
68858;SDS011;55864;49.238;8.092;2022-08-19T10:46:44;9.18;;;6.47;;
68858;SDS011;55864;49.238;8.092;2022-08-19T10:48:44;9.45;;;6.68;;
68858;SDS011;55864;49.238;8.092;2022-08-19T10:50:45;9.02;;;5.90;;
68858;SDS011;55864;49.238;8.092;2022-08-19T10:52:48;11.63;;;7.10;;
68858;SDS011;55864;49.238;8.092;2022-08-19T10:54:49;9.50;;;6.95;;
68858;SDS011;55864;49.238;8.092;2022-08-19T10:56:50;9.90;;;6.50;;
68858;SDS011;55864;49.238;8.092;2022-08-19T10:58:50;10.23;;;7.00;;
68858;SDS011;55864;49.238;8.092;2022-08-19T11:00:51;10.43;;;7.60;;
68858;SDS011;55864;49.238;8.092;2022-08-19T11:02:52;9.68;;;6.97;;
68858;SDS011;55864;49.238;8.092;2022-08-19T11:04:53;13.13;;;6.70;;
68858;SDS011;55864;49.238;8.092;2022-08-19T11:06:53;9.75;;;6.95;;
68858;SDS011;55864;49.238;8.092;2022-08-19T11:08:56;10.75;;;6.40;;
68858;SDS011;55864;49.238;8.092;2022-08-19T11:12:59;9.70;;;6.25;;
68858;SDS011;55864;49.238;8.092;2022-08-19T11:15:00;8.43;;;6.20;;
68858;SDS011;55864;49.238;8.092;2022-08-19T11:17:00;9.07;;;5.78;;
68858;SDS011;55864;49.238;8.092;2022-08-19T11:19:02;7.88;;;5.85;;
68858;SDS011;55864;49.238;8.092;2022-08-19T11:21:06;10.57;;;6.32;;
68858;SDS011;55864;49.238;8.092;2022-08-19T11:23:11;11.90;;;6.30;;
68858;SDS011;55864;49.238;8.092;2022-08-19T11:25:13;9.30;;;6.80;;
68858;SDS011;55864;49.238;8.092;2022-08-19T11:27:14;9.85;;;6.28;;
68858;SDS011;55864;49.238;8.092;2022-08-19T11:29:15;9.98;;;6.10;;
68858;SDS011;55864;49.238;8.092;2022-08-19T11:31:19;10.40;;;6.00;;
68858;SDS011;55864;49.238;8.092;2022-08-19T11:33:21;7.20;;;5.50;;
68858;SDS011;55864;49.238;8.092;2022-08-19T11:35:22;8.82;;;5.55;;
68858;SDS011;55864;49.238;8.092;2022-08-19T11:37:22;10.35;;;6.60;;
68858;SDS011;55864;49.238;8.092;2022-08-19T11:39:24;8.10;;;5.90;;
68858;SDS011;55864;49.238;8.092;2022-08-19T11:41:28;11.20;;;5.80;;
68858;SDS011;55864;49.238;8.092;2022-08-19T11:43:28;7.60;;;5.57;;
68858;SDS011;55864;49.238;8.092;2022-08-19T11:45:29;9.38;;;5.78;;
68858;SDS011;55864;49.238;8.092;2022-08-19T11:47:30;9.70;;;5.38;;
68858;SDS011;55864;49.238;8.092;2022-08-19T11:49:31;11.95;;;5.20;;
68858;SDS011;55864;49.238;8.092;2022-08-19T11:51:31;8.57;;;4.95;;
68858;SDS011;55864;49.238;8.092;2022-08-19T11:53:32;8.45;;;4.82;;
68858;SDS011;55864;49.238;8.092;2022-08-19T11:55:36;6.90;;;4.55;;
68858;SDS011;55864;49.238;8.092;2022-08-19T11:57:38;7.43;;;4.30;;
68858;SDS011;55864;49.238;8.092;2022-08-19T11:59:39;8.55;;;4.78;;
68858;SDS011;55864;49.238;8.092;2022-08-19T12:01:40;9.65;;;4.90;;
68858;SDS011;55864;49.238;8.092;2022-08-19T12:03:41;10.60;;;4.25;;
68858;SDS011;55864;49.238;8.092;2022-08-19T12:05:43;6.80;;;3.80;;
68858;SDS011;55864;49.238;8.092;2022-08-19T12:07:44;7.68;;;3.90;;
68858;SDS011;55864;49.238;8.092;2022-08-19T12:09:44;6.88;;;3.60;;
68858;SDS011;55864;49.238;8.092;2022-08-19T12:11:45;8.57;;;3.88;;
68858;SDS011;55864;49.238;8.092;2022-08-19T12:13:47;7.13;;;3.92;;
68858;SDS011;55864;49.238;8.092;2022-08-19T12:15:48;5.50;;;3.53;;
68858;SDS011;55864;49.238;8.092;2022-08-19T12:17:48;8.05;;;3.75;;
68858;SDS011;55864;49.238;8.092;2022-08-19T12:19:49;7.20;;;3.83;;
68858;SDS011;55864;49.238;8.092;2022-08-19T12:21:50;10.75;;;3.92;;